sensor_id;sensor_type;location;lat;lon;timestamp;pressure;altitude;pressure_sealevel;temperature;humidity
19789;BME280;10054;59.332;18.244;2022-09-17T00:01:39;98553.45;;;10.69;100.00
19789;BME280;10054;59.332;18.244;2022-09-17T00:04:08;98548.66;;;10.69;100.00
19789;BME280;10054;59.332;18.244;2022-09-17T00:06:37;98551.45;;;10.67;100.00
19789;BME280;10054;59.332;18.244;2022-09-17T00:09:07;98550.61;;;10.67;100.00
19789;BME280;10054;59.332;18.244;2022-09-17T00:11:38;98547.34;;;10.69;100.00
19789;BME280;10054;59.332;18.244;2022-09-17T00:14:09;98548.66;;;10.69;100.00
19789;BME280;10054;59.332;18.244;2022-09-17T00:16:40;98555.11;;;10.70;100.00
19789;BME280;10054;59.332;18.244;2022-09-17T00:19:15;98551.64;;;10.70;100.00
19789;BME280;10054;59.332;18.244;2022-09-17T00:21:43;98548.86;;;10.71;100.00
19789;BME280;10054;59.332;18.244;2022-09-17T00:24:13;98555.80;;;10.72;100.00
19789;BME280;10054;59.332;18.244;2022-09-17T00:26:42;98551.84;;;10.72;100.00
19789;BME280;10054;59.332;18.244;2022-09-17T00:29:11;98550.03;;;10.73;100.00
19789;BME280;10054;59.332;18.244;2022-09-17T00:31:40;98554.81;;;10.73;100.00
19789;BME280;10054;59.332;18.244;2022-09-17T00:34:09;98546.91;;;10.73;100.00
19789;BME280;10054;59.332;18.244;2022-09-17T00:36:39;98550.86;;;10.73;100.00
19789;BME280;10054;59.332;18.244;2022-09-17T00:39:09;98548.70;;;10.73;100.00
19789;BME280;10054;59.332;18.244;2022-09-17T00:41:38;98546.56;;;10.72;100.00
19789;BME280;10054;59.332;18.244;2022-09-17T00:44:39;98548.37;;;10.72;100.00
19789;BME280;10054;59.332;18.244;2022-09-17T00:47:19;98549.34;;;10.71;100.00
19789;BME280;10054;59.332;18.244;2022-09-17T00:49:51;98547.73;;;10.74;100.00
19789;BME280;10054;59.332;18.244;2022-09-17T00:52:28;98553.98;;;10.73;100.00
19789;BME280;10054;59.332;18.244;2022-09-17T00:55:23;98552.17;;;10.73;100.00
19789;BME280;10054;59.332;18.244;2022-09-17T00:57:30;98555.30;;;10.73;100.00
19789;BME280;10054;59.332;18.244;2022-09-17T00:59:59;98556.62;;;10.73;100.00
19789;BME280;10054;59.332;18.244;2022-09-17T01:02:28;98553.16;;;10.72;100.00
19789;BME280;10054;59.332;18.244;2022-09-17T01:04:56;98556.12;;;10.73;100.00
19789;BME280;10054;59.332;18.244;2022-09-17T01:10:14;98559.41;;;10.71;100.00
19789;BME280;10054;59.332;18.244;2022-09-17T01:15:37;98556.28;;;10.72;100.00
19789;BME280;10054;59.332;18.244;2022-09-17T01:18:10;98565.51;;;10.72;100.00
19789;BME280;10054;59.332;18.244;2022-09-17T01:34:19;98563.70;;;10.72;100.00
19789;BME280;10054;59.332;18.244;2022-09-17T01:37:02;98563.84;;;10.71;100.00
19789;BME280;10054;59.332;18.244;2022-09-17T01:43:20;98565.17;;;10.71;100.00
19789;BME280;10054;59.332;18.244;2022-09-17T01:45:13;98560.23;;;10.72;100.00
19789;BME280;10054;59.332;18.244;2022-09-17T01:47:55;98561.55;;;10.72;100.00
19789;BME280;10054;59.332;18.244;2022-09-17T01:50:27;98556.91;;;10.70;100.00
19789;BME280;10054;59.332;18.244;2022-09-17T01:52:57;98564.67;;;10.71;100.00
19789;BME280;10054;59.332;18.244;2022-09-17T01:55:28;98561.21;;;10.71;100.00
19789;BME280;10054;59.332;18.244;2022-09-17T01:58:01;98563.02;;;10.70;100.00
19789;BME280;10054;59.332;18.244;2022-09-17T02:00:30;98560.72;;;10.71;100.00
19789;BME280;10054;59.332;18.244;2022-09-17T02:03:07;98562.04;;;10.71;100.00
19789;BME280;10054;59.332;18.244;2022-09-17T02:08:21;98568.98;;;10.72;100.00
19789;BME280;10054;59.332;18.244;2022-09-17T02:11:11;98563.70;;;10.72;100.00
19789;BME280;10054;59.332;18.244;2022-09-17T02:13:30;98564.53;;;10.73;100.00
19789;BME280;10054;59.332;18.244;2022-09-17T02:16:11;98566.00;;;10.71;100.00
19789;BME280;10054;59.332;18.244;2022-09-17T02:18:45;98552.47;;;10.70;100.00
19789;BME280;10054;59.332;18.244;2022-09-17T02:24:12;98551.64;;;10.70;100.00
19789;BME280;10054;59.332;18.244;2022-09-17T02:26:44;98552.95;;;10.70;100.00
19789;BME280;10054;59.332;18.244;2022-09-17T02:29:20;98557.25;;;10.71;100.00
19789;BME280;10054;59.332;18.244;2022-09-17T02:31:43;98556.28;;;10.72;100.00
19789;BME280;10054;59.332;18.244;2022-09-17T02:34:14;98551.16;;;10.70;100.00
19789;BME280;10054;59.332;18.244;2022-09-17T02:36:42;98554.62;;;10.71;100.00
19789;BME280;10054;59.332;18.244;2022-09-17T02:39:11;98556.28;;;10.72;100.00
19789;BME280;10054;59.332;18.244;2022-09-17T02:41:52;98560.58;;;10.73;100.00
19789;BME280;10054;59.332;18.244;2022-09-17T02:44:40;98567.17;;;10.73;100.00
19789;BME280;10054;59.332;18.244;2022-09-17T02:47:15;98565.02;;;10.72;100.00
19789;BME280;10054;59.332;18.244;2022-09-17T02:52:41;98562.53;;;10.71;100.00
19789;BME280;10054;59.332;18.244;2022-09-17T02:58:16;98562.19;;;10.70;100.00
19789;BME280;10054;59.332;18.244;2022-09-17T03:00:28;98562.48;;;10.67;100.00
19789;BME280;10054;59.332;18.244;2022-09-17T03:05:47;98564.38;;;10.61;100.00
19789;BME280;10054;59.332;18.244;2022-09-17T03:08:16;98567.95;;;10.56;100.00
19789;BME280;10054;59.332;18.244;2022-09-17T03:10:48;98571.07;;;10.55;100.00
19789;BME280;10054;59.332;18.244;2022-09-17T03:13:16;98567.27;;;10.53;100.00
19789;BME280;10054;59.332;18.244;2022-09-17T03:15:45;98575.66;;;10.53;100.00
19789;BME280;10054;59.332;18.244;2022-09-17T03:18:14;98565.60;;;10.52;100.00
19789;BME280;10054;59.332;18.244;2022-09-17T03:20:42;98565.60;;;10.52;100.00
19789;BME280;10054;59.332;18.244;2022-09-17T03:23:12;98571.36;;;10.52;100.00
19789;BME280;10054;59.332;18.244;2022-09-17T03:25:41;98559.79;;;10.49;100.00
19789;BME280;10054;59.332;18.244;2022-09-17T03:28:11;98564.86;;;10.46;100.00
19789;BME280;10054;59.332;18.244;2022-09-17T03:30:46;98566.81;;;10.44;100.00
19789;BME280;10054;59.332;18.244;2022-09-17T03:33:11;98562.01;;;10.40;100.00
19789;BME280;10054;59.332;18.244;2022-09-17T03:35:46;98573.04;;;10.39;100.00
19789;BME280;10054;59.332;18.244;2022-09-17T03:38:15;98570.20;;;10.37;100.00
19789;BME280;10054;59.332;18.244;2022-09-17T03:40:44;98565.71;;;10.33;100.00
19789;BME280;10054;59.332;18.244;2022-09-17T03:43:14;98572.44;;;10.32;100.00
19789;BME280;10054;59.332;18.244;2022-09-17T03:45:43;98571.75;;;10.30;100.00
19789;BME280;10054;59.332;18.244;2022-09-17T03:48:11;98571.06;;;10.28;100.00
19789;BME280;10054;59.332;18.244;2022-09-17T03:50:42;98574.05;;;10.29;100.00
19789;BME280;10054;59.332;18.244;2022-09-17T03:53:11;98576.69;;;10.29;100.00
19789;BME280;10054;59.332;18.244;2022-09-17T03:55:40;98577.52;;;10.29;100.00
19789;BME280;10054;59.332;18.244;2022-09-17T03:58:09;98576.34;;;10.28;100.00
19789;BME280;10054;59.332;18.244;2022-09-17T04:00:37;98582.09;;;10.27;100.00
19789;BME280;10054;59.332;18.244;2022-09-17T04:03:06;98583.76;;;10.28;100.00
19789;BME280;10054;59.332;18.244;2022-09-17T04:05:34;98577.66;;;10.28;100.00
19789;BME280;10054;59.332;18.244;2022-09-17T04:08:03;98585.91;;;10.29;100.00
19789;BME280;10054;59.332;18.244;2022-09-17T04:10:32;98592.15;;;10.28;100.00
19789;BME280;10054;59.332;18.244;2022-09-17T04:13:00;98589.86;;;10.29;100.00
19789;BME280;10054;59.332;18.244;2022-09-17T04:15:30;98583.41;;;10.27;100.00
19789;BME280;10054;59.332;18.244;2022-09-17T04:17:58;98592.15;;;10.28;100.00
19789;BME280;10054;59.332;18.244;2022-09-17T04:20:27;98600.55;;;10.27;100.00
19789;BME280;10054;59.332;18.244;2022-09-17T04:22:56;98592.98;;;10.28;100.00
19789;BME280;10054;59.332;18.244;2022-09-17T04:25:25;98588.69;;;10.27;100.00
19789;BME280;10054;59.332;18.244;2022-09-17T04:27:53;98590.63;;;10.25;100.00
19789;BME280;10054;59.332;18.244;2022-09-17T04:30:22;98596.73;;;10.26;100.00
19789;BME280;10054;59.332;18.244;2022-09-17T04:32:50;98594.58;;;10.25;100.00
19789;BME280;10054;59.332;18.244;2022-09-17T04:35:19;98594.24;;;10.24;100.00
19789;BME280;10054;59.332;18.244;2022-09-17T04:37:55;98590.58;;;10.21;100.00
19789;BME280;10054;59.332;18.244;2022-09-17T04:40:24;98587.59;;;10.20;100.00
19789;BME280;10054;59.332;18.244;2022-09-17T04:42:55;98590.83;;;10.18;100.00
19789;BME280;10054;59.332;18.244;2022-09-17T04:45:27;98588.53;;;10.19;100.00
19789;BME280;10054;59.332;18.244;2022-09-17T04:47:56;98580.63;;;10.19;100.00
19789;BME280;10054;59.332;18.244;2022-09-17T04:50:26;98585.79;;;10.20;100.00
19789;BME280;10054;59.332;18.244;2022-09-17T04:52:57;98594.53;;;10.21;100.00
19789;BME280;10054;59.332;18.244;2022-09-17T04:55:25;98599.66;;;10.23;100.00
19789;BME280;10054;59.332;18.244;2022-09-17T04:57:54;98594.38;;;10.23;100.00
19789;BME280;10054;59.332;18.244;2022-09-17T05:00:23;98596.53;;;10.23;100.00
19789;BME280;10054;59.332;18.244;2022-09-17T05:02:53;98593.41;;;10.24;100.00
19789;BME280;10054;59.332;18.244;2022-09-17T05:05:23;98597.70;;;10.25;100.00
19789;BME280;10054;59.332;18.244;2022-09-17T05:07:52;98593.90;;;10.23;100.00
19789;BME280;10054;59.332;18.244;2022-09-17T05:10:21;98604.78;;;10.24;100.00
19789;BME280;10054;59.332;18.244;2022-09-17T05:12:51;98608.59;;;10.26;100.00
19789;BME280;10054;59.332;18.244;2022-09-17T05:15:21;98604.64;;;10.26;100.00
19789;BME280;10054;59.332;18.244;2022-09-17T05:17:50;98607.48;;;10.28;100.00
19789;BME280;10054;59.332;18.244;2022-09-17T05:20:19;98611.97;;;10.32;100.00
19789;BME280;10054;59.332;18.244;2022-09-17T05:22:50;98614.52;;;10.37;100.00
19789;BME280;10054;59.332;18.244;2022-09-17T05:25:21;98606.50;;;10.43;100.00
19789;BME280;10054;59.332;18.244;2022-09-17T05:27:53;98614.63;;;10.59;100.00
19789;BME280;10054;59.332;18.244;2022-09-17T05:30:22;98614.69;;;10.77;100.00
19789;BME280;10054;59.332;18.244;2022-09-17T05:33:04;98611.81;;;10.84;100.00
19789;BME280;10054;59.332;18.244;2022-09-17T05:35:29;98619.63;;;10.90;100.00
19789;BME280;10054;59.332;18.244;2022-09-17T05:37:59;98613.72;;;10.92;100.00
19789;BME280;10054;59.332;18.244;2022-09-17T05:40:28;98614.89;;;10.93;100.00
19789;BME280;10054;59.332;18.244;2022-09-17T05:43:02;98622.85;;;10.97;100.00
19789;BME280;10054;59.332;18.244;2022-09-17T05:45:36;98623.39;;;11.01;100.00
19789;BME280;10054;59.332;18.244;2022-09-17T05:48:06;98617.67;;;11.05;100.00
19789;BME280;10054;59.332;18.244;2022-09-17T05:50:37;98624.86;;;11.17;100.00
19789;BME280;10054;59.332;18.244;2022-09-17T05:53:13;98621.37;;;11.30;100.00
19789;BME280;10054;59.332;18.244;2022-09-17T05:55:39;98613.92;;;11.43;100.00
19789;BME280;10054;59.332;18.244;2022-09-17T05:58:18;98629.16;;;11.49;100.00
19789;BME280;10054;59.332;18.244;2022-09-17T06:00:48;98620.86;;;11.44;100.00
19789;BME280;10054;59.332;18.244;2022-09-17T06:03:18;98630.10;;;11.44;100.00
19789;BME280;10054;59.332;18.244;2022-09-17T06:05:56;98633.00;;;11.37;100.00
19789;BME280;10054;59.332;18.244;2022-09-17T06:08:28;98639.55;;;11.33;100.00
19789;BME280;10054;59.332;18.244;2022-09-17T06:10:56;98634.38;;;11.28;100.00
19789;BME280;10054;59.332;18.244;2022-09-17T06:13:25;98640.94;;;11.24;100.00
19789;BME280;10054;59.332;18.244;2022-09-17T06:15:54;98637.13;;;11.22;100.00
19789;BME280;10054;59.332;18.244;2022-09-17T06:18:22;98638.06;;;11.17;100.00
19789;BME280;10054;59.332;18.244;2022-09-17T06:21:02;98639.70;;;11.14;100.00
19789;BME280;10054;59.332;18.244;2022-09-17T06:23:32;98641.82;;;11.14;100.00
19789;BME280;10054;59.332;18.244;2022-09-17T06:26:05;98643.83;;;11.16;100.00
19789;BME280;10054;59.332;18.244;2022-09-17T06:28:35;98643.05;;;11.20;100.00
19789;BME280;10054;59.332;18.244;2022-09-17T06:31:05;98645.23;;;11.25;100.00
19789;BME280;10054;59.332;18.244;2022-09-17T06:33:34;98642.00;;;11.31;100.00
19789;BME280;10054;59.332;18.244;2022-09-17T06:36:05;98645.22;;;11.38;100.00
19789;BME280;10054;59.332;18.244;2022-09-17T06:38:34;98650.44;;;11.48;100.00
19789;BME280;10054;59.332;18.244;2022-09-17T06:41:03;98649.84;;;11.54;100.00
19789;BME280;10054;59.332;18.244;2022-09-17T06:43:32;98648.22;;;11.57;100.00
19789;BME280;10054;59.332;18.244;2022-09-17T06:46:03;98657.35;;;11.63;100.00
19789;BME280;10054;59.332;18.244;2022-09-17T06:48:36;98657.05;;;11.66;100.00
19789;BME280;10054;59.332;18.244;2022-09-17T06:51:07;98647.84;;;11.70;100.00
19789;BME280;10054;59.332;18.244;2022-09-17T06:53:36;98656.38;;;11.77;100.00
19789;BME280;10054;59.332;18.244;2022-09-17T06:56:06;98652.63;;;11.84;100.00
19789;BME280;10054;59.332;18.244;2022-09-17T06:58:36;98649.46;;;11.80;100.00
19789;BME280;10054;59.332;18.244;2022-09-17T07:01:05;98662.38;;;11.83;100.00
19789;BME280;10054;59.332;18.244;2022-09-17T07:03:33;98661.92;;;11.92;100.00
19789;BME280;10054;59.332;18.244;2022-09-17T07:06:03;98662.11;;;11.95;100.00
19789;BME280;10054;59.332;18.244;2022-09-17T07:08:32;98665.31;;;12.02;100.00
19789;BME280;10054;59.332;18.244;2022-09-17T07:11:01;98662.73;;;12.10;100.00
19789;BME280;10054;59.332;18.244;2022-09-17T07:13:29;98663.91;;;12.12;100.00
19789;BME280;10054;59.332;18.244;2022-09-17T07:15:59;98672.44;;;12.06;100.00
19789;BME280;10054;59.332;18.244;2022-09-17T07:18:28;98672.59;;;12.04;100.00
19789;BME280;10054;59.332;18.244;2022-09-17T07:20:59;98673.17;;;11.94;100.00
19789;BME280;10054;59.332;18.244;2022-09-17T07:23:29;98675.81;;;11.94;100.00
19789;BME280;10054;59.332;18.244;2022-09-17T07:26:00;98670.53;;;11.94;100.00
19789;BME280;10054;59.332;18.244;2022-09-17T07:28:29;98676.98;;;11.96;100.00
19789;BME280;10054;59.332;18.244;2022-09-17T07:31:01;98672.56;;;12.00;100.00
19789;BME280;10054;59.332;18.244;2022-09-17T07:33:29;98672.56;;;12.00;100.00
19789;BME280;10054;59.332;18.244;2022-09-17T07:36:00;98681.50;;;12.03;100.00
19789;BME280;10054;59.332;18.244;2022-09-17T07:38:29;98677.42;;;12.09;100.00
19789;BME280;10054;59.332;18.244;2022-09-17T07:41:04;98677.42;;;12.09;100.00
19789;BME280;10054;59.332;18.244;2022-09-17T07:43:31;98678.10;;;12.11;100.00
19789;BME280;10054;59.332;18.244;2022-09-17T07:46:03;98677.77;;;12.10;100.00
19789;BME280;10054;59.332;18.244;2022-09-17T07:48:33;98688.89;;;12.17;100.00
19789;BME280;10054;59.332;18.244;2022-09-17T07:51:02;98691.08;;;12.22;100.00
19789;BME280;10054;59.332;18.244;2022-09-17T07:53:31;98692.40;;;12.22;100.00
19789;BME280;10054;59.332;18.244;2022-09-17T07:56:00;98695.53;;;12.22;100.00
19789;BME280;10054;59.332;18.244;2022-09-17T07:58:33;98701.34;;;12.25;100.00
19789;BME280;10054;59.332;18.244;2022-09-17T08:01:05;98697.27;;;12.31;100.00
19789;BME280;10054;59.332;18.244;2022-09-17T08:03:38;98700.16;;;12.41;100.00
19789;BME280;10054;59.332;18.244;2022-09-17T08:06:14;98703.69;;;12.50;100.00
19789;BME280;10054;59.332;18.244;2022-09-17T08:08:39;98704.44;;;12.68;100.00
19789;BME280;10054;59.332;18.244;2022-09-17T08:11:19;98702.88;;;12.83;100.00
19789;BME280;10054;59.332;18.244;2022-09-17T08:13:50;98700.79;;;12.95;100.00
19789;BME280;10054;59.332;18.244;2022-09-17T08:16:20;98703.14;;;13.02;100.00
19789;BME280;10054;59.332;18.244;2022-09-17T08:18:55;98702.31;;;13.02;100.00
19789;BME280;10054;59.332;18.244;2022-09-17T08:21:24;98705.47;;;13.05;100.00
19789;BME280;10054;59.332;18.244;2022-09-17T08:23:52;98705.23;;;13.17;100.00
19789;BME280;10054;59.332;18.244;2022-09-17T08:26:23;98710.58;;;13.29;100.00
19789;BME280;10054;59.332;18.244;2022-09-17T08:28:53;98713.73;;;13.40;100.00
19789;BME280;10054;59.332;18.244;2022-09-17T08:31:24;98713.63;;;13.58;100.00
19789;BME280;10054;59.332;18.244;2022-09-17T08:33:54;98724.41;;;13.65;100.00
19789;BME280;10054;59.332;18.244;2022-09-17T08:36:23;98727.91;;;13.69;100.00
19789;BME280;10054;59.332;18.244;2022-09-17T08:38:54;98731.72;;;13.71;100.00
19789;BME280;10054;59.332;18.244;2022-09-17T08:44:22;98737.30;;;13.56;100.00
19789;BME280;10054;59.332;18.244;2022-09-17T08:46:59;98741.38;;;13.42;100.00
19789;BME280;10054;59.332;18.244;2022-09-17T08:49:33;98730.79;;;13.34;100.00
19789;BME280;10054;59.332;18.244;2022-09-17T08:57:58;98749.06;;;13.57;100.00
19789;BME280;10054;59.332;18.244;2022-09-17T09:00:23;98747.59;;;13.67;100.00
19789;BME280;10054;59.332;18.244;2022-09-17T09:11:22;98755.33;;;13.52;100.00
19789;BME280;10054;59.332;18.244;2022-09-17T09:13:49;98757.78;;;13.45;100.00
19789;BME280;10054;59.332;18.244;2022-09-17T09:16:28;98760.44;;;13.45;100.00
19789;BME280;10054;59.332;18.244;2022-09-17T09:18:58;98756.13;;;13.44;100.00
19789;BME280;10054;59.332;18.244;2022-09-17T09:21:30;98759.77;;;13.43;100.00
19789;BME280;10054;59.332;18.244;2022-09-17T09:24:22;98761.75;;;13.41;100.00
19789;BME280;10054;59.332;18.244;2022-09-17T09:32:54;98771.59;;;13.61;100.00
19789;BME280;10054;59.332;18.244;2022-09-17T09:35:18;98773.94;;;13.68;100.00
19789;BME280;10054;59.332;18.244;2022-09-17T09:38:03;98773.94;;;13.68;100.00
19789;BME280;10054;59.332;18.244;2022-09-17T09:40:45;98767.50;;;13.75;100.00
19789;BME280;10054;59.332;18.244;2022-09-17T09:51:34;98790.04;;;13.79;100.00
19789;BME280;10054;59.332;18.244;2022-09-17T09:54:22;98790.22;;;13.81;100.00
19789;BME280;10054;59.332;18.244;2022-09-17T09:56:55;98793.55;;;13.88;100.00
19789;BME280;10054;59.332;18.244;2022-09-17T09:59:25;98796.86;;;13.90;100.00
19789;BME280;10054;59.332;18.244;2022-09-17T10:01:53;98797.67;;;13.82;100.00
19789;BME280;10054;59.332;18.244;2022-09-17T10:04:24;98801.80;;;13.76;100.00
19789;BME280;10054;59.332;18.244;2022-09-17T10:07:00;98805.27;;;13.77;100.00
19789;BME280;10054;59.332;18.244;2022-09-17T10:09:25;98804.75;;;13.69;100.00
19789;BME280;10054;59.332;18.244;2022-09-17T10:14:43;98804.06;;;13.63;100.00
19789;BME280;10054;59.332;18.244;2022-09-17T10:17:20;98804.08;;;13.67;100.00
19789;BME280;10054;59.332;18.244;2022-09-17T10:22:39;98817.86;;;13.75;100.00
19789;BME280;10054;59.332;18.244;2022-09-17T10:25:29;98816.23;;;13.82;100.00
19789;BME280;10054;59.332;18.244;2022-09-17T10:28:00;98821.70;;;13.85;100.00
19789;BME280;10054;59.332;18.244;2022-09-17T10:30:35;98819.52;;;13.76;100.00
19789;BME280;10054;59.332;18.244;2022-09-17T10:33:20;98826.76;;;13.66;100.00
19789;BME280;10054;59.332;18.244;2022-09-17T10:36:04;98823.10;;;13.63;100.00
19789;BME280;10054;59.332;18.244;2022-09-17T10:38:40;98815.33;;;13.65;100.00
19789;BME280;10054;59.332;18.244;2022-09-17T10:43:43;98826.78;;;13.70;100.00
19789;BME280;10054;59.332;18.244;2022-09-17T10:46:19;98832.91;;;13.70;100.00
19789;BME280;10054;59.332;18.244;2022-09-17T10:51:31;98837.97;;;13.94;100.00
19789;BME280;10054;59.332;18.244;2022-09-17T10:54:17;98839.16;;;14.03;100.00
19789;BME280;10054;59.332;18.244;2022-09-17T10:56:56;98841.81;;;14.15;100.00
19789;BME280;10054;59.332;18.244;2022-09-17T11:02:35;98842.66;;;14.20;100.00
19789;BME280;10054;59.332;18.244;2022-09-17T11:07:47;98846.39;;;14.43;99.35
19789;BME280;10054;59.332;18.244;2022-09-17T11:10:29;98857.67;;;14.50;97.81
19789;BME280;10054;59.332;18.244;2022-09-17T11:21:12;98865.00;;;14.76;93.27
19789;BME280;10054;59.332;18.244;2022-09-17T11:24:06;98865.99;;;14.75;95.46
19789;BME280;10054;59.332;18.244;2022-09-17T11:26:40;98861.68;;;14.78;97.09
19789;BME280;10054;59.332;18.244;2022-09-17T11:37:45;98880.57;;;14.59;97.19
19789;BME280;10054;59.332;18.244;2022-09-17T11:40:36;98882.22;;;14.52;100.00
19789;BME280;10054;59.332;18.244;2022-09-17T11:43:27;98882.33;;;14.38;100.00
19789;BME280;10054;59.332;18.244;2022-09-17T11:46:21;98877.33;;;14.31;100.00
19789;BME280;10054;59.332;18.244;2022-09-17T11:48:50;98887.09;;;14.26;100.00
19789;BME280;10054;59.332;18.244;2022-09-17T11:51:29;98882.27;;;14.18;100.00
19789;BME280;10054;59.332;18.244;2022-09-17T11:54:06;98887.22;;;14.12;100.00
19789;BME280;10054;59.332;18.244;2022-09-17T11:56:48;98883.92;;;14.10;100.00
19789;BME280;10054;59.332;18.244;2022-09-17T12:01:59;98881.26;;;14.14;100.00
19789;BME280;10054;59.332;18.244;2022-09-17T12:13:13;98888.45;;;14.38;100.00
19789;BME280;10054;59.332;18.244;2022-09-17T12:15:41;98889.33;;;14.43;100.00
19789;BME280;10054;59.332;18.244;2022-09-17T12:20:53;98886.86;;;14.54;100.00
19789;BME280;10054;59.332;18.244;2022-09-17T12:23:43;98886.38;;;14.62;100.00
19789;BME280;10054;59.332;18.244;2022-09-17T12:26:37;98885.07;;;14.74;98.98
19789;BME280;10054;59.332;18.244;2022-09-17T12:40:01;98888.03;;;15.12;97.74
19789;BME280;10054;59.332;18.244;2022-09-17T12:48:00;98902.00;;;14.77;98.78
19789;BME280;10054;59.332;18.244;2022-09-17T12:53:27;98893.34;;;14.63;100.00
19789;BME280;10054;59.332;18.244;2022-09-17T12:59:06;98900.11;;;14.45;99.88
19789;BME280;10054;59.332;18.244;2022-09-17T13:07:32;98935.30;;;14.09;100.00
19789;BME280;10054;59.332;18.244;2022-09-17T13:10:27;98939.11;;;13.77;100.00
19789;BME280;10054;59.332;18.244;2022-09-17T13:13:02;98939.34;;;13.62;100.00
19789;BME280;10054;59.332;18.244;2022-09-17T13:15:36;98938.93;;;13.48;100.00
19789;BME280;10054;59.332;18.244;2022-09-17T13:21:12;98942.91;;;13.23;100.00
19789;BME280;10054;59.332;18.244;2022-09-17T13:23:47;98946.29;;;13.15;100.00
19789;BME280;10054;59.332;18.244;2022-09-17T13:26:20;98941.45;;;13.10;100.00
19789;BME280;10054;59.332;18.244;2022-09-17T13:28:51;98945.80;;;13.15;100.00
19789;BME280;10054;59.332;18.244;2022-09-17T13:32:07;98944.69;;;13.18;100.00
19789;BME280;10054;59.332;18.244;2022-09-17T13:33:54;98938.94;;;13.23;100.00
19789;BME280;10054;59.332;18.244;2022-09-17T13:36:58;98942.33;;;13.33;100.00
19789;BME280;10054;59.332;18.244;2022-09-17T13:39:49;98936.72;;;13.36;100.00
19789;BME280;10054;59.332;18.244;2022-09-17T13:42:28;98940.38;;;13.43;100.00
19789;BME280;10054;59.332;18.244;2022-09-17T13:47:52;98935.84;;;13.57;100.00
19789;BME280;10054;59.332;18.244;2022-09-17T13:51:00;98943.33;;;13.62;100.00
19789;BME280;10054;59.332;18.244;2022-09-17T13:52:48;98934.28;;;13.72;100.00
19789;BME280;10054;59.332;18.244;2022-09-17T13:55:41;98943.42;;;13.78;100.00
19789;BME280;10054;59.332;18.244;2022-09-17T13:58:11;98939.63;;;13.80;100.00
19789;BME280;10054;59.332;18.244;2022-09-17T14:00:53;98941.00;;;13.89;100.00
19789;BME280;10054;59.332;18.244;2022-09-17T14:08:46;98943.38;;;14.00;100.00
19789;BME280;10054;59.332;18.244;2022-09-17T14:16:46;98947.67;;;13.97;100.00
19789;BME280;10054;59.332;18.244;2022-09-17T14:19:25;98950.00;;;14.00;100.00
19789;BME280;10054;59.332;18.244;2022-09-17T14:21:56;98951.17;;;14.01;100.00
19789;BME280;10054;59.332;18.244;2022-09-17T14:24:37;98951.48;;;13.98;100.00
19789;BME280;10054;59.332;18.244;2022-09-17T14:30:28;98963.51;;;13.85;100.00
19789;BME280;10054;59.332;18.244;2022-09-17T14:35:38;98973.72;;;13.75;100.00
19789;BME280;10054;59.332;18.244;2022-09-17T14:43:58;98987.69;;;13.60;100.00
19789;BME280;10054;59.332;18.244;2022-09-17T14:46:30;98990.59;;;13.48;100.00
19789;BME280;10054;59.332;18.244;2022-09-17T14:49:20;98997.83;;;13.42;100.00
19789;BME280;10054;59.332;18.244;2022-09-17T14:51:50;99001.12;;;13.36;100.00
19789;BME280;10054;59.332;18.244;2022-09-17T14:54:30;98998.44;;;13.32;100.00
19789;BME280;10054;59.332;18.244;2022-09-17T14:57:09;99004.23;;;13.32;100.00
19789;BME280;10054;59.332;18.244;2022-09-17T14:59:48;98999.91;;;13.31;100.00
19789;BME280;10054;59.332;18.244;2022-09-17T15:05:18;99002.19;;;13.26;100.00
19789;BME280;10054;59.332;18.244;2022-09-17T15:07:47;99001.84;;;13.25;100.00
19789;BME280;10054;59.332;18.244;2022-09-17T15:10:19;99004.80;;;13.22;100.00
19789;BME280;10054;59.332;18.244;2022-09-17T15:12:49;99002.95;;;13.18;100.00
19789;BME280;10054;59.332;18.244;2022-09-17T15:15:23;99005.44;;;13.20;100.00
19789;BME280;10054;59.332;18.244;2022-09-17T15:17:53;99010.39;;;13.19;100.00
19789;BME280;10054;59.332;18.244;2022-09-17T15:20:26;99011.04;;;13.17;100.00
19789;BME280;10054;59.332;18.244;2022-09-17T15:25:31;99026.70;;;13.14;100.00
19789;BME280;10054;59.332;18.244;2022-09-17T15:28:04;99015.05;;;13.07;100.00
19789;BME280;10054;59.332;18.244;2022-09-17T15:30:32;99031.13;;;13.09;100.00
19789;BME280;10054;59.332;18.244;2022-09-17T15:33:01;99028.14;;;13.08;100.00
19789;BME280;10054;59.332;18.244;2022-09-17T15:35:31;99031.92;;;13.06;100.00
19789;BME280;10054;59.332;18.244;2022-09-17T15:38:02;99030.75;;;13.04;100.00
19789;BME280;10054;59.332;18.244;2022-09-17T15:40:39;99032.03;;;13.00;100.00
19789;BME280;10054;59.332;18.244;2022-09-17T15:43:29;99029.53;;;12.99;100.00
19789;BME280;10054;59.332;18.244;2022-09-17T15:48:49;99031.84;;;12.98;100.00
19789;BME280;10054;59.332;18.244;2022-09-17T15:51:29;99033.31;;;12.96;100.00
19789;BME280;10054;59.332;18.244;2022-09-17T15:53:59;99030.66;;;12.96;100.00
19789;BME280;10054;59.332;18.244;2022-09-17T15:59:15;99035.77;;;12.94;100.00
19789;BME280;10054;59.332;18.244;2022-09-17T16:01:48;99035.08;;;12.92;100.00
19789;BME280;10054;59.332;18.244;2022-09-17T16:04:18;99035.72;;;12.90;100.00
19789;BME280;10054;59.332;18.244;2022-09-17T16:09:47;99033.86;;;12.86;100.00
19789;BME280;10054;59.332;18.244;2022-09-17T16:12:18;99035.97;;;12.82;100.00
19789;BME280;10054;59.332;18.244;2022-09-17T16:14:50;99031.17;;;12.82;100.00